sensor_id;sensor_type;location;lat;lon;timestamp;temperature;humidity
17208;DHT22;8720;48.488;9.202;2023-01-19T00:00:51;0.80;60.20
17208;DHT22;8720;48.488;9.202;2023-01-19T00:03:19;0.90;60.10
17208;DHT22;8720;48.488;9.202;2023-01-19T00:05:46;0.90;60.20
17208;DHT22;8720;48.488;9.202;2023-01-19T00:08:13;0.90;60.30
17208;DHT22;8720;48.488;9.202;2023-01-19T00:10:42;0.90;60.30
17208;DHT22;8720;48.488;9.202;2023-01-19T00:13:11;0.90;60.20
17208;DHT22;8720;48.488;9.202;2023-01-19T00:15:39;0.80;60.00
17208;DHT22;8720;48.488;9.202;2023-01-19T00:18:08;0.80;60.10
17208;DHT22;8720;48.488;9.202;2023-01-19T00:20:36;0.80;59.80
17208;DHT22;8720;48.488;9.202;2023-01-19T00:23:03;0.80;60.00
17208;DHT22;8720;48.488;9.202;2023-01-19T00:25:32;0.80;59.80
17208;DHT22;8720;48.488;9.202;2023-01-19T00:28:00;0.80;59.80
17208;DHT22;8720;48.488;9.202;2023-01-19T00:30:28;0.80;59.70
17208;DHT22;8720;48.488;9.202;2023-01-19T00:32:56;0.70;59.60
17208;DHT22;8720;48.488;9.202;2023-01-19T00:35:24;0.70;59.50
17208;DHT22;8720;48.488;9.202;2023-01-19T00:37:52;0.70;59.40
17208;DHT22;8720;48.488;9.202;2023-01-19T00:40:19;0.70;59.50
17208;DHT22;8720;48.488;9.202;2023-01-19T00:42:46;0.60;59.40
17208;DHT22;8720;48.488;9.202;2023-01-19T00:45:16;0.60;59.20
17208;DHT22;8720;48.488;9.202;2023-01-19T00:47:45;0.60;59.00
17208;DHT22;8720;48.488;9.202;2023-01-19T00:50:14;0.50;58.90
17208;DHT22;8720;48.488;9.202;2023-01-19T00:52:44;0.50;58.80
17208;DHT22;8720;48.488;9.202;2023-01-19T00:55:13;0.40;58.70
17208;DHT22;8720;48.488;9.202;2023-01-19T00:57:41;0.40;58.80
17208;DHT22;8720;48.488;9.202;2023-01-19T01:00:11;0.30;58.70
17208;DHT22;8720;48.488;9.202;2023-01-19T01:02:41;0.30;58.70
17208;DHT22;8720;48.488;9.202;2023-01-19T01:05:10;0.20;58.70
17208;DHT22;8720;48.488;9.202;2023-01-19T01:07:38;0.20;58.80
17208;DHT22;8720;48.488;9.202;2023-01-19T01:10:09;0.20;58.80
17208;DHT22;8720;48.488;9.202;2023-01-19T01:12:40;0.10;58.70
17208;DHT22;8720;48.488;9.202;2023-01-19T01:15:11;0.10;58.90
17208;DHT22;8720;48.488;9.202;2023-01-19T01:17:39;0.00;58.90
17208;DHT22;8720;48.488;9.202;2023-01-19T01:20:13;0.00;59.00
17208;DHT22;8720;48.488;9.202;2023-01-19T01:22:44;0.00;58.50
17208;DHT22;8720;48.488;9.202;2023-01-19T01:25:16;0.00;59.00
17208;DHT22;8720;48.488;9.202;2023-01-19T01:27:47;0.00;59.10
17208;DHT22;8720;48.488;9.202;2023-01-19T01:30:15;-0.10;59.10
17208;DHT22;8720;48.488;9.202;2023-01-19T01:32:43;-0.10;59.20
17208;DHT22;8720;48.488;9.202;2023-01-19T01:35:11;-0.10;59.20
17208;DHT22;8720;48.488;9.202;2023-01-19T01:37:39;-0.10;59.10
17208;DHT22;8720;48.488;9.202;2023-01-19T01:40:10;-0.10;59.10
17208;DHT22;8720;48.488;9.202;2023-01-19T01:42:43;-0.10;59.00
17208;DHT22;8720;48.488;9.202;2023-01-19T01:45:28;-0.10;58.90
17208;DHT22;8720;48.488;9.202;2023-01-19T01:48:01;-0.10;58.60
17208;DHT22;8720;48.488;9.202;2023-01-19T01:50:36;-0.10;58.70
17208;DHT22;8720;48.488;9.202;2023-01-19T01:53:29;-0.20;58.70
17208;DHT22;8720;48.488;9.202;2023-01-19T01:56:03;-0.20;58.70
17208;DHT22;8720;48.488;9.202;2023-01-19T01:58:35;-0.20;58.70
17208;DHT22;8720;48.488;9.202;2023-01-19T02:01:04;-0.30;58.60
17208;DHT22;8720;48.488;9.202;2023-01-19T02:03:50;-0.30;58.70
17208;DHT22;8720;48.488;9.202;2023-01-19T02:06:19;-0.30;58.70
17208;DHT22;8720;48.488;9.202;2023-01-19T02:08:51;-0.30;58.70
17208;DHT22;8720;48.488;9.202;2023-01-19T02:11:41;-0.30;58.60
17208;DHT22;8720;48.488;9.202;2023-01-19T02:14:27;-0.40;58.60
17208;DHT22;8720;48.488;9.202;2023-01-19T02:16:55;-0.40;58.50
17208;DHT22;8720;48.488;9.202;2023-01-19T02:19:25;-0.40;58.60
17208;DHT22;8720;48.488;9.202;2023-01-19T02:22:02;-0.40;58.50
17208;DHT22;8720;48.488;9.202;2023-01-19T02:24:36;-0.50;58.80
17208;DHT22;8720;48.488;9.202;2023-01-19T02:27:04;-0.50;58.20
17208;DHT22;8720;48.488;9.202;2023-01-19T02:29:36;-0.50;58.10
17208;DHT22;8720;48.488;9.202;2023-01-19T02:32:05;-0.60;58.60
17208;DHT22;8720;48.488;9.202;2023-01-19T02:34:32;-0.60;58.00
17208;DHT22;8720;48.488;9.202;2023-01-19T02:37:03;-0.60;58.00
17208;DHT22;8720;48.488;9.202;2023-01-19T02:39:41;-0.70;57.90
17208;DHT22;8720;48.488;9.202;2023-01-19T02:42:13;-0.70;57.90
17208;DHT22;8720;48.488;9.202;2023-01-19T02:44:50;-0.70;58.00
17208;DHT22;8720;48.488;9.202;2023-01-19T02:47:20;-0.70;58.00
17208;DHT22;8720;48.488;9.202;2023-01-19T02:49:54;-0.80;57.90
17208;DHT22;8720;48.488;9.202;2023-01-19T02:52:22;-0.80;57.80
17208;DHT22;8720;48.488;9.202;2023-01-19T02:54:58;-0.80;57.90
17208;DHT22;8720;48.488;9.202;2023-01-19T02:57:52;-0.90;57.70
17208;DHT22;8720;48.488;9.202;2023-01-19T03:03:16;-0.90;58.50
17208;DHT22;8720;48.488;9.202;2023-01-19T03:05:55;-0.90;57.70
17208;DHT22;8720;48.488;9.202;2023-01-19T03:08:35;-0.90;57.70
17208;DHT22;8720;48.488;9.202;2023-01-19T03:11:12;-1.00;57.70
17208;DHT22;8720;48.488;9.202;2023-01-19T03:13:44;-1.00;57.80
17208;DHT22;8720;48.488;9.202;2023-01-19T03:16:19;-1.00;57.80
17208;DHT22;8720;48.488;9.202;2023-01-19T03:18:55;-1.00;57.80
17208;DHT22;8720;48.488;9.202;2023-01-19T03:21:33;-1.00;57.80
17208;DHT22;8720;48.488;9.202;2023-01-19T03:24:05;-1.00;57.80
17208;DHT22;8720;48.488;9.202;2023-01-19T03:26:39;-1.00;57.80
17208;DHT22;8720;48.488;9.202;2023-01-19T03:29:12;-1.10;57.70
17208;DHT22;8720;48.488;9.202;2023-01-19T03:31:44;-1.10;57.70
17208;DHT22;8720;48.488;9.202;2023-01-19T03:34:18;-1.10;57.70
17208;DHT22;8720;48.488;9.202;2023-01-19T03:36:51;-1.10;57.70
17208;DHT22;8720;48.488;9.202;2023-01-19T03:39:26;-1.10;57.70
17208;DHT22;8720;48.488;9.202;2023-01-19T03:41:58;-1.20;57.70
17208;DHT22;8720;48.488;9.202;2023-01-19T03:44:32;-1.20;57.70
17208;DHT22;8720;48.488;9.202;2023-01-19T03:47:03;-1.20;57.70
17208;DHT22;8720;48.488;9.202;2023-01-19T03:49:33;-1.20;57.80
17208;DHT22;8720;48.488;9.202;2023-01-19T03:52:02;-1.20;57.90
17208;DHT22;8720;48.488;9.202;2023-01-19T03:54:31;-1.20;58.00
17208;DHT22;8720;48.488;9.202;2023-01-19T03:56:59;-1.20;58.10
17208;DHT22;8720;48.488;9.202;2023-01-19T03:59:26;-1.20;58.20
17208;DHT22;8720;48.488;9.202;2023-01-19T04:01:54;-1.20;58.40
17208;DHT22;8720;48.488;9.202;2023-01-19T04:04:21;-1.10;58.60
17208;DHT22;8720;48.488;9.202;2023-01-19T04:06:50;-1.10;58.80
17208;DHT22;8720;48.488;9.202;2023-01-19T04:09:17;-1.10;58.90
17208;DHT22;8720;48.488;9.202;2023-01-19T04:11:44;-1.10;59.00
17208;DHT22;8720;48.488;9.202;2023-01-19T04:14:13;-1.00;59.10
17208;DHT22;8720;48.488;9.202;2023-01-19T04:16:40;-1.00;59.00
17208;DHT22;8720;48.488;9.202;2023-01-19T04:19:07;-1.00;59.10
17208;DHT22;8720;48.488;9.202;2023-01-19T04:21:34;-0.90;59.10
17208;DHT22;8720;48.488;9.202;2023-01-19T04:24:02;-0.90;59.00
17208;DHT22;8720;48.488;9.202;2023-01-19T04:26:29;-0.90;58.80
17208;DHT22;8720;48.488;9.202;2023-01-19T04:28:57;-0.90;59.30
17208;DHT22;8720;48.488;9.202;2023-01-19T04:31:25;-0.90;58.60
17208;DHT22;8720;48.488;9.202;2023-01-19T04:33:54;-0.90;58.40
17208;DHT22;8720;48.488;9.202;2023-01-19T04:36:22;-0.90;58.20
17208;DHT22;8720;48.488;9.202;2023-01-19T04:38:49;-0.90;58.20
17208;DHT22;8720;48.488;9.202;2023-01-19T04:41:16;-0.90;58.30
17208;DHT22;8720;48.488;9.202;2023-01-19T04:43:44;-1.00;58.30
17208;DHT22;8720;48.488;9.202;2023-01-19T04:46:12;-1.00;58.30
17208;DHT22;8720;48.488;9.202;2023-01-19T04:48:41;-1.00;58.40
17208;DHT22;8720;48.488;9.202;2023-01-19T04:51:08;-1.00;58.50
17208;DHT22;8720;48.488;9.202;2023-01-19T04:53:35;-1.00;59.30
17208;DHT22;8720;48.488;9.202;2023-01-19T04:56:02;-1.00;58.70
17208;DHT22;8720;48.488;9.202;2023-01-19T04:58:30;-0.90;58.90
17208;DHT22;8720;48.488;9.202;2023-01-19T05:00:57;-0.90;59.00
17208;DHT22;8720;48.488;9.202;2023-01-19T05:03:25;-0.90;59.00
17208;DHT22;8720;48.488;9.202;2023-01-19T05:05:55;-0.90;59.10
17208;DHT22;8720;48.488;9.202;2023-01-19T05:08:24;-0.90;59.00
17208;DHT22;8720;48.488;9.202;2023-01-19T05:10:51;-0.80;59.30
17208;DHT22;8720;48.488;9.202;2023-01-19T05:13:18;-0.80;59.30
17208;DHT22;8720;48.488;9.202;2023-01-19T05:15:46;-0.80;59.30
17208;DHT22;8720;48.488;9.202;2023-01-19T05:18:13;-0.80;59.20
17208;DHT22;8720;48.488;9.202;2023-01-19T05:20:40;-0.80;59.20
17208;DHT22;8720;48.488;9.202;2023-01-19T05:23:09;-0.70;59.30
17208;DHT22;8720;48.488;9.202;2023-01-19T05:25:36;-0.70;59.20
17208;DHT22;8720;48.488;9.202;2023-01-19T05:28:04;-0.70;59.20
17208;DHT22;8720;48.488;9.202;2023-01-19T05:30:31;-0.70;59.10
17208;DHT22;8720;48.488;9.202;2023-01-19T05:32:58;-0.70;59.20
17208;DHT22;8720;48.488;9.202;2023-01-19T05:35:27;-0.60;59.30
17208;DHT22;8720;48.488;9.202;2023-01-19T05:37:54;-0.60;59.30
17208;DHT22;8720;48.488;9.202;2023-01-19T05:40:23;-0.60;59.20
17208;DHT22;8720;48.488;9.202;2023-01-19T05:42:50;-0.60;59.10
17208;DHT22;8720;48.488;9.202;2023-01-19T05:45:18;-0.50;59.30
17208;DHT22;8720;48.488;9.202;2023-01-19T05:47:45;-0.50;59.30
17208;DHT22;8720;48.488;9.202;2023-01-19T05:50:13;-0.50;59.20
17208;DHT22;8720;48.488;9.202;2023-01-19T05:52:40;-0.40;59.10
17208;DHT22;8720;48.488;9.202;2023-01-19T05:55:08;-0.40;58.90
17208;DHT22;8720;48.488;9.202;2023-01-19T05:57:37;-0.40;58.70
17208;DHT22;8720;48.488;9.202;2023-01-19T06:00:05;-0.40;58.50
17208;DHT22;8720;48.488;9.202;2023-01-19T06:02:34;-0.40;58.50
17208;DHT22;8720;48.488;9.202;2023-01-19T06:05:02;-0.40;58.40
17208;DHT22;8720;48.488;9.202;2023-01-19T06:07:30;-0.40;58.20
17208;DHT22;8720;48.488;9.202;2023-01-19T06:09:58;-0.40;58.00
17208;DHT22;8720;48.488;9.202;2023-01-19T06:12:25;-0.50;57.70
17208;DHT22;8720;48.488;9.202;2023-01-19T06:14:54;-0.50;57.50
17208;DHT22;8720;48.488;9.202;2023-01-19T06:17:21;-0.50;57.20
17208;DHT22;8720;48.488;9.202;2023-01-19T06:19:49;-0.60;57.70
17208;DHT22;8720;48.488;9.202;2023-01-19T06:22:16;-0.60;57.00
17208;DHT22;8720;48.488;9.202;2023-01-19T06:24:43;-0.60;56.90
17208;DHT22;8720;48.488;9.202;2023-01-19T06:27:11;-0.70;56.80
17208;DHT22;8720;48.488;9.202;2023-01-19T06:29:38;-0.70;56.70
17208;DHT22;8720;48.488;9.202;2023-01-19T06:32:07;-0.80;56.60
17208;DHT22;8720;48.488;9.202;2023-01-19T06:34:34;-0.80;56.50
17208;DHT22;8720;48.488;9.202;2023-01-19T06:37:01;-0.90;56.50
17208;DHT22;8720;48.488;9.202;2023-01-19T06:39:29;-0.90;56.50
17208;DHT22;8720;48.488;9.202;2023-01-19T06:41:56;-1.00;57.10
17208;DHT22;8720;48.488;9.202;2023-01-19T06:44:23;-1.00;56.50
17208;DHT22;8720;48.488;9.202;2023-01-19T06:46:50;-1.10;56.50
17208;DHT22;8720;48.488;9.202;2023-01-19T06:49:19;-1.10;56.40
17208;DHT22;8720;48.488;9.202;2023-01-19T06:51:46;-1.10;56.40
17208;DHT22;8720;48.488;9.202;2023-01-19T06:54:14;-1.20;56.30
17208;DHT22;8720;48.488;9.202;2023-01-19T06:56:41;-1.20;56.30
17208;DHT22;8720;48.488;9.202;2023-01-19T06:59:08;-1.30;56.30
17208;DHT22;8720;48.488;9.202;2023-01-19T07:01:36;-1.30;56.30
17208;DHT22;8720;48.488;9.202;2023-01-19T07:04:03;-1.30;56.40
17208;DHT22;8720;48.488;9.202;2023-01-19T07:06:32;-1.40;56.90
17208;DHT22;8720;48.488;9.202;2023-01-19T07:08:59;-1.40;56.30
17208;DHT22;8720;48.488;9.202;2023-01-19T07:11:31;-1.50;56.40
17208;DHT22;8720;48.488;9.202;2023-01-19T07:13:59;-1.50;57.30
17208;DHT22;8720;48.488;9.202;2023-01-19T07:16:26;-1.50;57.10
17208;DHT22;8720;48.488;9.202;2023-01-19T07:18:53;-1.50;57.10
17208;DHT22;8720;48.488;9.202;2023-01-19T07:21:21;-1.50;57.10
17208;DHT22;8720;48.488;9.202;2023-01-19T07:23:51;-1.50;57.20
17208;DHT22;8720;48.488;9.202;2023-01-19T07:26:21;-1.50;57.40
17208;DHT22;8720;48.488;9.202;2023-01-19T07:28:50;-1.50;57.20
17208;DHT22;8720;48.488;9.202;2023-01-19T07:31:18;-1.50;57.20
17208;DHT22;8720;48.488;9.202;2023-01-19T07:33:46;-1.50;57.20
17208;DHT22;8720;48.488;9.202;2023-01-19T07:36:13;-1.50;57.20
17208;DHT22;8720;48.488;9.202;2023-01-19T07:38:41;-1.50;57.10
17208;DHT22;8720;48.488;9.202;2023-01-19T07:41:09;-1.40;57.10
17208;DHT22;8720;48.488;9.202;2023-01-19T07:43:37;-1.40;57.00
17208;DHT22;8720;48.488;9.202;2023-01-19T07:46:05;-1.40;57.00
17208;DHT22;8720;48.488;9.202;2023-01-19T07:48:33;-1.40;56.80
17208;DHT22;8720;48.488;9.202;2023-01-19T07:51:02;-1.40;56.80
17208;DHT22;8720;48.488;9.202;2023-01-19T07:53:33;-1.40;56.80
17208;DHT22;8720;48.488;9.202;2023-01-19T07:56:01;-1.30;56.80
17208;DHT22;8720;48.488;9.202;2023-01-19T07:58:32;-1.30;56.60
17208;DHT22;8720;48.488;9.202;2023-01-19T08:00:59;-1.30;56.50
17208;DHT22;8720;48.488;9.202;2023-01-19T08:03:26;-1.30;56.60
17208;DHT22;8720;48.488;9.202;2023-01-19T08:05:53;-1.30;56.50
17208;DHT22;8720;48.488;9.202;2023-01-19T08:08:21;-1.30;56.50
17208;DHT22;8720;48.488;9.202;2023-01-19T08:10:50;-1.30;56.70
17208;DHT22;8720;48.488;9.202;2023-01-19T08:13:17;-1.20;56.80
17208;DHT22;8720;48.488;9.202;2023-01-19T08:15:49;-1.20;56.80
17208;DHT22;8720;48.488;9.202;2023-01-19T08:18:17;-1.10;56.80
17208;DHT22;8720;48.488;9.202;2023-01-19T08:20:46;-1.00;57.20
17208;DHT22;8720;48.488;9.202;2023-01-19T08:23:13;-1.00;57.40
17208;DHT22;8720;48.488;9.202;2023-01-19T08:25:43;-0.90;57.60
17208;DHT22;8720;48.488;9.202;2023-01-19T08:28:12;-0.80;57.60
17208;DHT22;8720;48.488;9.202;2023-01-19T08:30:42;-0.80;57.50
17208;DHT22;8720;48.488;9.202;2023-01-19T08:33:11;-0.70;57.70
17208;DHT22;8720;48.488;9.202;2023-01-19T08:35:40;-0.60;57.70
17208;DHT22;8720;48.488;9.202;2023-01-19T08:38:09;-0.50;57.80
17208;DHT22;8720;48.488;9.202;2023-01-19T08:40:39;-0.50;57.50
17208;DHT22;8720;48.488;9.202;2023-01-19T08:43:09;-0.50;57.20
17208;DHT22;8720;48.488;9.202;2023-01-19T08:45:40;-0.40;57.10
17208;DHT22;8720;48.488;9.202;2023-01-19T08:48:16;-0.40;56.90
17208;DHT22;8720;48.488;9.202;2023-01-19T08:50:45;-0.40;56.80
17208;DHT22;8720;48.488;9.202;2023-01-19T08:53:14;-0.40;57.00
17208;DHT22;8720;48.488;9.202;2023-01-19T08:55:42;-0.40;57.20
17208;DHT22;8720;48.488;9.202;2023-01-19T08:58:09;-0.40;57.30
17208;DHT22;8720;48.488;9.202;2023-01-19T09:00:38;-0.30;57.40
17208;DHT22;8720;48.488;9.202;2023-01-19T09:03:10;-0.30;57.40
17208;DHT22;8720;48.488;9.202;2023-01-19T09:05:40;-0.20;57.30
17208;DHT22;8720;48.488;9.202;2023-01-19T09:08:09;-0.20;57.40
17208;DHT22;8720;48.488;9.202;2023-01-19T09:10:43;-0.10;57.60
17208;DHT22;8720;48.488;9.202;2023-01-19T09:13:12;-0.10;57.50
17208;DHT22;8720;48.488;9.202;2023-01-19T09:15:42;0.00;57.90
17208;DHT22;8720;48.488;9.202;2023-01-19T09:18:11;0.00;57.90
17208;DHT22;8720;48.488;9.202;2023-01-19T09:20:41;0.10;58.00
17208;DHT22;8720;48.488;9.202;2023-01-19T09:23:11;0.20;57.90
17208;DHT22;8720;48.488;9.202;2023-01-19T09:25:41;0.30;58.80
17208;DHT22;8720;48.488;9.202;2023-01-19T09:28:10;0.40;58.50
17208;DHT22;8720;48.488;9.202;2023-01-19T09:30:40;0.60;59.10
17208;DHT22;8720;48.488;9.202;2023-01-19T09:33:11;0.70;59.20
17208;DHT22;8720;48.488;9.202;2023-01-19T09:35:43;0.90;59.20
17208;DHT22;8720;48.488;9.202;2023-01-19T09:38:12;1.10;59.00
17208;DHT22;8720;48.488;9.202;2023-01-19T09:40:42;1.20;58.90
17208;DHT22;8720;48.488;9.202;2023-01-19T09:43:17;1.30;58.40
17208;DHT22;8720;48.488;9.202;2023-01-19T09:45:57;1.50;57.80
17208;DHT22;8720;48.488;9.202;2023-01-19T09:48:35;1.60;58.20
17208;DHT22;8720;48.488;9.202;2023-01-19T09:51:16;1.70;57.30
17208;DHT22;8720;48.488;9.202;2023-01-19T09:53:59;1.80;57.60
17208;DHT22;8720;48.488;9.202;2023-01-19T09:56:32;1.90;57.20
17208;DHT22;8720;48.488;9.202;2023-01-19T09:59:00;2.00;57.90
17208;DHT22;8720;48.488;9.202;2023-01-19T10:01:50;2.00;57.80
17208;DHT22;8720;48.488;9.202;2023-01-19T10:04:33;2.10;56.90
17208;DHT22;8720;48.488;9.202;2023-01-19T10:07:20;2.20;57.30
17208;DHT22;8720;48.488;9.202;2023-01-19T10:10:16;2.30;56.80
17208;DHT22;8720;48.488;9.202;2023-01-19T10:12:57;2.30;56.50
17208;DHT22;8720;48.488;9.202;2023-01-19T10:15:39;2.40;57.20
17208;DHT22;8720;48.488;9.202;2023-01-19T10:18:16;2.60;58.10
17208;DHT22;8720;48.488;9.202;2023-01-19T10:20:50;2.70;57.60
17208;DHT22;8720;48.488;9.202;2023-01-19T10:23:43;2.80;58.20
17208;DHT22;8720;48.488;9.202;2023-01-19T10:26:17;3.00;56.80
17208;DHT22;8720;48.488;9.202;2023-01-19T10:28:52;3.10;57.70
17208;DHT22;8720;48.488;9.202;2023-01-19T10:31:22;3.20;57.70
17208;DHT22;8720;48.488;9.202;2023-01-19T10:33:51;3.20;57.50
17208;DHT22;8720;48.488;9.202;2023-01-19T10:36:24;3.30;57.50
17208;DHT22;8720;48.488;9.202;2023-01-19T10:38:57;3.30;57.20
17208;DHT22;8720;48.488;9.202;2023-01-19T10:41:27;3.40;57.50
17208;DHT22;8720;48.488;9.202;2023-01-19T10:44:04;3.40;57.40
17208;DHT22;8720;48.488;9.202;2023-01-19T10:46:37;3.40;57.80
17208;DHT22;8720;48.488;9.202;2023-01-19T10:49:23;3.50;57.50
17208;DHT22;8720;48.488;9.202;2023-01-19T10:51:54;3.60;56.70
17208;DHT22;8720;48.488;9.202;2023-01-19T10:54:25;3.60;57.90
17208;DHT22;8720;48.488;9.202;2023-01-19T10:56:57;3.70;57.80
17208;DHT22;8720;48.488;9.202;2023-01-19T10:59:31;3.80;57.90
17208;DHT22;8720;48.488;9.202;2023-01-19T11:02:15;3.90;57.50
17208;DHT22;8720;48.488;9.202;2023-01-19T11:04:45;3.90;56.10
17208;DHT22;8720;48.488;9.202;2023-01-19T11:07:18;4.00;57.00
17208;DHT22;8720;48.488;9.202;2023-01-19T11:09:48;4.00;56.60
17208;DHT22;8720;48.488;9.202;2023-01-19T11:12:17;4.10;56.90
17208;DHT22;8720;48.488;9.202;2023-01-19T11:14:48;4.20;56.90
17208;DHT22;8720;48.488;9.202;2023-01-19T11:17:19;4.20;56.70
17208;DHT22;8720;48.488;9.202;2023-01-19T11:19:56;4.30;56.60
17208;DHT22;8720;48.488;9.202;2023-01-19T11:22:28;4.30;56.10
17208;DHT22;8720;48.488;9.202;2023-01-19T11:25:03;4.40;56.50
17208;DHT22;8720;48.488;9.202;2023-01-19T11:27:34;4.40;56.10
17208;DHT22;8720;48.488;9.202;2023-01-19T11:30:06;4.40;56.30
17208;DHT22;8720;48.488;9.202;2023-01-19T11:32:43;4.40;56.30
17208;DHT22;8720;48.488;9.202;2023-01-19T11:35:31;4.40;56.90
17208;DHT22;8720;48.488;9.202;2023-01-19T11:38:16;4.40;55.30
17208;DHT22;8720;48.488;9.202;2023-01-19T11:40:53;4.40;55.50
17208;DHT22;8720;48.488;9.202;2023-01-19T11:43:23;4.40;55.90
17208;DHT22;8720;48.488;9.202;2023-01-19T11:45:54;4.40;56.90
17208;DHT22;8720;48.488;9.202;2023-01-19T11:48:28;4.30;57.10
17208;DHT22;8720;48.488;9.202;2023-01-19T11:51:01;4.40;57.00
17208;DHT22;8720;48.488;9.202;2023-01-19T11:53:32;4.40;57.20
17208;DHT22;8720;48.488;9.202;2023-01-19T11:56:08;4.40;57.00
17208;DHT22;8720;48.488;9.202;2023-01-19T11:58:38;4.50;56.60
17208;DHT22;8720;48.488;9.202;2023-01-19T12:01:14;4.40;57.00
17208;DHT22;8720;48.488;9.202;2023-01-19T12:03:52;4.50;56.30
17208;DHT22;8720;48.488;9.202;2023-01-19T12:06:25;4.40;56.30
17208;DHT22;8720;48.488;9.202;2023-01-19T12:09:00;4.40;56.50
17208;DHT22;8720;48.488;9.202;2023-01-19T12:11:36;4.40;56.80
17208;DHT22;8720;48.488;9.202;2023-01-19T12:14:14;4.40;56.90
17208;DHT22;8720;48.488;9.202;2023-01-19T12:16:50;4.40;56.30
17208;DHT22;8720;48.488;9.202;2023-01-19T12:19:24;4.50;56.90
17208;DHT22;8720;48.488;9.202;2023-01-19T12:22:00;4.50;56.60
17208;DHT22;8720;48.488;9.202;2023-01-19T12:24:30;4.50;57.20
17208;DHT22;8720;48.488;9.202;2023-01-19T12:27:12;4.50;57.00
17208;DHT22;8720;48.488;9.202;2023-01-19T12:29:46;4.60;56.60
17208;DHT22;8720;48.488;9.202;2023-01-19T12:32:18;4.60;57.30
17208;DHT22;8720;48.488;9.202;2023-01-19T12:34:57;4.60;56.60
17208;DHT22;8720;48.488;9.202;2023-01-19T12:37:33;4.70;57.50
17208;DHT22;8720;48.488;9.202;2023-01-19T12:40:17;4.70;56.50
17208;DHT22;8720;48.488;9.202;2023-01-19T12:42:57;4.70;55.90
17208;DHT22;8720;48.488;9.202;2023-01-19T12:45:31;4.80;56.40
17208;DHT22;8720;48.488;9.202;2023-01-19T12:48:01;4.80;56.50
17208;DHT22;8720;48.488;9.202;2023-01-19T12:50:36;4.90;57.20
17208;DHT22;8720;48.488;9.202;2023-01-19T12:53:14;4.90;56.80
17208;DHT22;8720;48.488;9.202;2023-01-19T12:55:44;4.90;57.00
17208;DHT22;8720;48.488;9.202;2023-01-19T12:58:24;4.90;57.20
17208;DHT22;8720;48.488;9.202;2023-01-19T13:01:13;5.00;56.80
17208;DHT22;8720;48.488;9.202;2023-01-19T13:03:59;5.00;55.40
17208;DHT22;8720;48.488;9.202;2023-01-19T13:09:36;5.10;55.40
17208;DHT22;8720;48.488;9.202;2023-01-19T13:12:19;5.10;57.00
17208;DHT22;8720;48.488;9.202;2023-01-19T13:14:50;5.10;55.60
17208;DHT22;8720;48.488;9.202;2023-01-19T13:17:46;5.10;57.00
17208;DHT22;8720;48.488;9.202;2023-01-19T13:20:21;5.10;56.10
17208;DHT22;8720;48.488;9.202;2023-01-19T13:23:20;5.10;56.80
17208;DHT22;8720;48.488;9.202;2023-01-19T13:26:01;5.20;55.40
17208;DHT22;8720;48.488;9.202;2023-01-19T13:28:35;5.20;56.90
17208;DHT22;8720;48.488;9.202;2023-01-19T13:31:06;5.20;56.80
17208;DHT22;8720;48.488;9.202;2023-01-19T13:33:51;5.20;57.50
17208;DHT22;8720;48.488;9.202;2023-01-19T13:36:26;5.20;55.80
17208;DHT22;8720;48.488;9.202;2023-01-19T13:38:57;5.30;56.70
17208;DHT22;8720;48.488;9.202;2023-01-19T13:41:30;5.30;57.40
17208;DHT22;8720;48.488;9.202;2023-01-19T13:44:06;5.40;57.00
17208;DHT22;8720;48.488;9.202;2023-01-19T13:46:38;5.40;56.80
17208;DHT22;8720;48.488;9.202;2023-01-19T13:49:16;5.40;57.40
17208;DHT22;8720;48.488;9.202;2023-01-19T13:52:02;5.40;56.30
17208;DHT22;8720;48.488;9.202;2023-01-19T13:54:31;5.40;55.70
17208;DHT22;8720;48.488;9.202;2023-01-19T13:56:58;5.50;57.40
17208;DHT22;8720;48.488;9.202;2023-01-19T13:59:26;5.50;57.30
17208;DHT22;8720;48.488;9.202;2023-01-19T14:01:53;5.50;57.20
17208;DHT22;8720;48.488;9.202;2023-01-19T14:04:38;5.40;57.00
17208;DHT22;8720;48.488;9.202;2023-01-19T14:07:15;5.40;56.60
17208;DHT22;8720;48.488;9.202;2023-01-19T14:10:00;5.40;56.50
17208;DHT22;8720;48.488;9.202;2023-01-19T14:12:28;5.50;55.70
17208;DHT22;8720;48.488;9.202;2023-01-19T14:14:57;5.50;57.20
17208;DHT22;8720;48.488;9.202;2023-01-19T14:17:26;5.50;57.00
17208;DHT22;8720;48.488;9.202;2023-01-19T14:19:58;5.50;56.90
17208;DHT22;8720;48.488;9.202;2023-01-19T14:22:47;5.50;56.50
17208;DHT22;8720;48.488;9.202;2023-01-19T14:25:26;5.40;55.30
17208;DHT22;8720;48.488;9.202;2023-01-19T14:28:27;5.40;55.60
17208;DHT22;8720;48.488;9.202;2023-01-19T14:31:01;5.40;55.10
17208;DHT22;8720;48.488;9.202;2023-01-19T14:33:35;5.40;56.80
17208;DHT22;8720;48.488;9.202;2023-01-19T14:36:26;5.40;56.20
17208;DHT22;8720;48.488;9.202;2023-01-19T14:39:00;5.40;55.40
17208;DHT22;8720;48.488;9.202;2023-01-19T14:41:34;5.40;56.60
17208;DHT22;8720;48.488;9.202;2023-01-19T14:44:07;5.40;56.10
17208;DHT22;8720;48.488;9.202;2023-01-19T14:46:36;5.40;56.40
17208;DHT22;8720;48.488;9.202;2023-01-19T14:49:05;5.30;56.90
17208;DHT22;8720;48.488;9.202;2023-01-19T14:51:35;5.30;56.50
17208;DHT22;8720;48.488;9.202;2023-01-19T14:54:03;5.30;56.40
17208;DHT22;8720;48.488;9.202;2023-01-19T14:56:31;5.30;56.70
17208;DHT22;8720;48.488;9.202;2023-01-19T14:59:03;5.30;56.40
17208;DHT22;8720;48.488;9.202;2023-01-19T15:01:35;5.30;56.60
17208;DHT22;8720;48.488;9.202;2023-01-19T15:04:03;5.20;56.80
17208;DHT22;8720;48.488;9.202;2023-01-19T15:06:30;5.20;56.80
17208;DHT22;8720;48.488;9.202;2023-01-19T15:09:00;5.20;56.70
17208;DHT22;8720;48.488;9.202;2023-01-19T15:11:31;5.20;56.50
17208;DHT22;8720;48.488;9.202;2023-01-19T15:14:00;5.20;56.50
17208;DHT22;8720;48.488;9.202;2023-01-19T15:16:30;5.10;56.80
17208;DHT22;8720;48.488;9.202;2023-01-19T15:19:00;5.10;56.60
17208;DHT22;8720;48.488;9.202;2023-01-19T15:21:27;5.10;56.80
17208;DHT22;8720;48.488;9.202;2023-01-19T15:23:54;5.10;56.90
17208;DHT22;8720;48.488;9.202;2023-01-19T15:26:25;5.10;56.90
17208;DHT22;8720;48.488;9.202;2023-01-19T15:28:55;5.10;56.50
17208;DHT22;8720;48.488;9.202;2023-01-19T15:31:23;5.00;56.70
17208;DHT22;8720;48.488;9.202;2023-01-19T15:33:52;5.00;56.80
17208;DHT22;8720;48.488;9.202;2023-01-19T15:36:20;5.00;56.60
17208;DHT22;8720;48.488;9.202;2023-01-19T15:38:49;5.00;56.60
17208;DHT22;8720;48.488;9.202;2023-01-19T15:41:21;5.00;56.80
17208;DHT22;8720;48.488;9.202;2023-01-19T15:43:52;4.90;56.00
17208;DHT22;8720;48.488;9.202;2023-01-19T15:46:20;4.90;56.80
17208;DHT22;8720;48.488;9.202;2023-01-19T15:48:49;4.90;56.90
17208;DHT22;8720;48.488;9.202;2023-01-19T15:51:18;4.90;56.70
17208;DHT22;8720;48.488;9.202;2023-01-19T15:53:48;4.90;56.70
17208;DHT22;8720;48.488;9.202;2023-01-19T15:56:19;4.90;57.00
17208;DHT22;8720;48.488;9.202;2023-01-19T15:58:49;4.90;56.90
17208;DHT22;8720;48.488;9.202;2023-01-19T16:01:19;4.90;56.90
17208;DHT22;8720;48.488;9.202;2023-01-19T16:03:48;4.80;56.80
17208;DHT22;8720;48.488;9.202;2023-01-19T16:06:16;4.80;57.00
17208;DHT22;8720;48.488;9.202;2023-01-19T16:08:43;4.70;57.00
17208;DHT22;8720;48.488;9.202;2023-01-19T16:11:12;4.70;57.00
17208;DHT22;8720;48.488;9.202;2023-01-19T16:13:43;4.70;56.80
17208;DHT22;8720;48.488;9.202;2023-01-19T16:16:14;4.70;56.50
17208;DHT22;8720;48.488;9.202;2023-01-19T16:18:42;4.70;56.50
17208;DHT22;8720;48.488;9.202;2023-01-19T16:21:10;4.60;56.80
17208;DHT22;8720;48.488;9.202;2023-01-19T16:23:38;4.50;57.70
17208;DHT22;8720;48.488;9.202;2023-01-19T16:26:19;4.50;56.90
17208;DHT22;8720;48.488;9.202;2023-01-19T16:28:49;4.50;56.40